Time;durP1;ratioP1;P1;durP2;ratioP2;P2;SDS_P1;SDS_P2;PMS_P1;PMS_P2;Temp;Humidity;BMP_temperature;BMP_pressure;BME280_temperature;BME280_humidity;BME280_pressure;Samples;Min_cycle;Max_cycle;Signal;HPM_P1;HPM_P2
2022/04/24 00:01:08;;;;;;;14.30;7.13;;;9.10;99.90;;;;;;5031478;28;20049;-87
2022/04/24 00:03:34;;;;;;;13.88;7.20;;;9.00;99.90;;;;;;5032664;28;20073;-88
2022/04/24 00:06:00;;;;;;;13.63;7.50;;;9.00;99.90;;;;;;5014613;28;20104;-88
2022/04/24 00:08:25;;;;;;;12.80;6.70;;;9.00;99.90;;;;;;5031997;28;20080;-87
2022/04/24 00:10:51;;;;;;;12.52;6.70;;;8.90;99.90;;;;;;5032141;28;20049;-87
2022/04/24 00:13:17;;;;;;;16.23;7.10;;;8.90;99.90;;;;;;5016544;28;20041;-87
2022/04/24 00:15:42;;;;;;;12.40;6.40;;;9.00;99.90;;;;;;5017502;28;20095;-88
2022/04/24 00:18:08;;;;;;;12.57;7.15;;;8.90;99.90;;;;;;5019264;28;20397;-87
2022/04/24 00:20:34;;;;;;;12.40;6.57;;;8.90;99.90;;;;;;5018216;28;20132;-87
2022/04/24 00:23:00;;;;;;;15.52;7.00;;;8.90;99.90;;;;;;5017143;28;20037;-87
2022/04/24 00:25:25;;;;;;;13.40;7.38;;;8.80;99.90;;;;;;5018113;28;20540;-87
2022/04/24 00:27:51;;;;;;;12.68;6.45;;;8.80;99.90;;;;;;5035775;28;20041;-87
2022/04/24 00:30:17;;;;;;;13.82;6.43;;;8.80;99.90;;;;;;5017029;28;20052;-87
2022/04/24 00:32:42;;;;;;;12.88;6.55;;;8.80;99.90;;;;;;5035151;28;20243;-87
2022/04/24 00:35:08;;;;;;;12.63;6.50;;;8.70;99.90;;;;;;5038567;28;20045;-87
2022/04/24 00:37:34;;;;;;;14.15;7.15;;;8.70;99.90;;;;;;5035239;28;20056;-87
2022/04/24 00:39:59;;;;;;;12.88;6.82;;;8.70;99.90;;;;;;5034749;28;20029;-87
2022/04/24 00:42:25;;;;;;;12.70;6.97;;;8.60;99.90;;;;;;5039007;28;20053;-86
2022/04/24 00:44:51;;;;;;;13.32;6.50;;;8.60;99.90;;;;;;5034378;28;20116;-87
2022/04/24 00:47:18;;;;;;;14.15;7.47;;;8.60;99.90;;;;;;5017855;28;20055;-87
2022/04/24 00:49:45;;;;;;;13.70;6.55;;;8.60;99.90;;;;;;5016835;28;20485;-87
2022/04/24 00:52:11;;;;;;;12.43;7.25;;;8.50;99.90;;;;;;5035559;28;20504;-87
2022/04/24 00:54:38;;;;;;;11.88;6.43;;;8.50;99.90;;;;;;5017743;28;20054;-87
2022/04/24 00:57:08;;;;;;;14.27;7.25;;;8.40;99.90;;;;;;5016773;28;20037;-87
2022/04/24 00:59:33;;;;;;;16.70;7.13;;;8.40;99.90;;;;;;5017852;28;20042;-88
2022/04/24 01:02:02;;;;;;;12.13;6.30;;;8.40;99.90;;;;;;5017610;28;20420;-87
2022/04/24 01:04:27;;;;;;;13.00;6.20;;;8.40;99.90;;;;;;5034633;28;20056;-87
2022/04/24 01:06:53;;;;;;;12.40;6.20;;;8.40;99.90;;;;;;5017261;28;20140;-87
2022/04/24 01:09:21;;;;;;;14.93;6.50;;;8.40;99.90;;;;;;5034968;28;20100;-87
2022/04/24 01:11:51;;;;;;;12.70;7.03;;;8.40;99.90;;;;;;5034342;28;20060;-87
2022/04/24 01:14:19;;;;;;;12.85;6.75;;;8.40;99.90;;;;;;5017531;28;20474;-87
2022/04/24 01:16:46;;;;;;;12.77;6.47;;;8.30;99.90;;;;;;5034980;28;20052;-87
2022/04/24 01:19:12;;;;;;;14.27;6.32;;;8.30;99.90;;;;;;5034858;28;20040;-88
2022/04/24 01:21:40;;;;;;;13.00;6.75;;;8.30;99.90;;;;;;5035110;28;20067;-87
2022/04/24 01:24:07;;;;;;;14.18;6.50;;;8.30;99.90;;;;;;5016632;28;20452;-87
2022/04/24 01:26:33;;;;;;;12.25;6.43;;;8.20;99.90;;;;;;5033920;28;20397;-87
2022/04/24 01:28:59;;;;;;;11.43;6.07;;;8.20;99.90;;;;;;5016692;28;20041;-87
2022/04/24 01:31:25;;;;;;;12.07;6.55;;;8.20;99.90;;;;;;5017005;28;20432;-87
2022/04/24 01:33:50;;;;;;;12.93;6.20;;;8.20;99.90;;;;;;5015631;28;20144;-87
2022/04/24 01:36:16;;;;;;;11.45;5.95;;;8.20;99.90;;;;;;5016450;28;20396;-87
2022/04/24 01:38:41;;;;;;;12.35;6.22;;;8.20;99.90;;;;;;5016642;28;20081;-87
2022/04/24 01:41:08;;;;;;;13.30;6.60;;;8.10;99.90;;;;;;5015852;28;20048;-87
2022/04/24 01:43:33;;;;;;;11.90;6.20;;;8.10;99.90;;;;;;5034531;28;20120;-87
2022/04/24 01:45:59;;;;;;;12.32;6.45;;;8.10;99.90;;;;;;5015499;28;20132;-87
2022/04/24 01:48:24;;;;;;;12.93;6.75;;;8.10;99.90;;;;;;5016458;28;20053;-87
2022/04/24 01:50:56;;;;;;;12.07;6.53;;;8.00;99.90;;;;;;5034098;28;20045;-87
2022/04/24 01:53:22;;;;;;;13.38;6.18;;;8.00;99.90;;;;;;5033784;28;20091;-87
2022/04/24 01:55:47;;;;;;;12.70;6.32;;;8.00;99.90;;;;;;5033922;28;20045;-87
2022/04/24 01:58:13;;;;;;;12.38;6.88;;;7.90;99.90;;;;;;5016402;28;20140;-87
2022/04/24 02:00:38;;;;;;;13.05;6.75;;;7.90;99.90;;;;;;5015719;28;20030;-88
2022/04/24 02:03:04;;;;;;;13.15;6.38;;;7.90;99.90;;;;;;5014866;28;20054;-87
2022/04/24 02:05:30;;;;;;;13.43;6.40;;;7.80;99.90;;;;;;5015813;28;20061;-87
2022/04/24 02:07:55;;;;;;;14.50;6.85;;;7.70;99.90;;;;;;5032817;28;20440;-87
2022/04/24 02:10:21;;;;;;;12.18;6.15;;;7.70;99.90;;;;;;5016210;28;20131;-87
2022/04/24 02:12:46;;;;;;;11.85;6.43;;;7.60;99.90;;;;;;5033942;28;20037;-87
2022/04/24 02:15:12;;;;;;;11.93;6.22;;;7.60;99.90;;;;;;5033253;28;20072;-87
2022/04/24 02:17:38;;;;;;;13.43;6.22;;;7.60;99.90;;;;;;5034028;28;20540;-87
2022/04/24 02:20:04;;;;;;;12.18;5.88;;;7.50;99.90;;;;;;5033400;28;20107;-87
2022/04/24 02:22:34;;;;;;;11.70;6.30;;;7.50;99.90;;;;;;5033419;28;20053;-87
2022/04/24 02:25:00;;;;;;;11.82;6.22;;;7.50;99.90;;;;;;5015641;28;20053;-88
2022/04/24 02:27:27;;;;;;;11.65;5.85;;;7.40;99.90;;;;;;5033852;28;20050;-87
2022/04/24 02:29:52;;;;;;;12.20;6.40;;;7.40;99.90;;;;;;5014704;28;20128;-88
2022/04/24 02:32:18;;;;;;;13.25;6.75;;;7.40;99.90;;;;;;5015705;28;20068;-87
2022/04/24 02:34:44;;;;;;;12.52;6.45;;;7.40;99.90;;;;;;5033360;28;20084;-87
2022/04/24 02:37:10;;;;;;;11.77;6.53;;;7.30;99.90;;;;;;5014744;28;20042;-87
2022/04/24 02:39:38;;;;;;;12.80;6.53;;;7.30;99.90;;;;;;5015780;28;20049;-88
2022/04/24 02:42:04;;;;;;;12.10;6.30;;;7.30;99.90;;;;;;5033759;28;20041;-87
2022/04/24 02:44:29;;;;;;;13.68;6.60;;;7.20;99.90;;;;;;5033105;28;20056;-88
2022/04/24 02:46:55;;;;;;;12.95;6.13;;;7.20;99.90;;;;;;5032759;28;20049;-87
2022/04/24 02:49:21;;;;;;;14.63;6.55;;;7.20;99.90;;;;;;5014722;28;20038;-87
2022/04/24 02:51:46;;;;;;;14.50;6.10;;;7.20;99.90;;;;;;5033258;28;20060;-87
2022/04/24 02:54:13;;;;;;;13.15;6.47;;;7.20;99.90;;;;;;5033149;28;20096;-87
2022/04/24 02:56:38;;;;;;;12.90;6.18;;;7.20;99.90;;;;;;5015239;28;20090;-87
2022/04/24 02:59:04;;;;;;;14.45;6.07;;;7.20;99.90;;;;;;5033989;28;20116;-88
2022/04/24 03:01:34;;;;;;;11.35;5.90;;;7.10;99.90;;;;;;5032947;28;20397;-87
2022/04/24 03:04:00;;;;;;;12.30;6.15;;;7.10;99.90;;;;;;5014429;28;20136;-87
2022/04/24 03:06:25;;;;;;;11.40;5.82;;;7.00;99.90;;;;;;5033476;28;20124;-87
2022/04/24 03:08:51;;;;;;;12.63;6.38;;;7.00;99.90;;;;;;5015657;28;20477;-87
2022/04/24 03:11:17;;;;;;;13.13;6.95;;;7.00;99.90;;;;;;5032246;28;20041;-87
2022/04/24 03:13:42;;;;;;;12.25;5.65;;;7.00;99.90;;;;;;5033132;28;20428;-88
2022/04/24 03:16:09;;;;;;;11.85;5.80;;;6.90;99.90;;;;;;5033079;28;20409;-87
2022/04/24 03:18:34;;;;;;;11.35;5.57;;;6.90;99.90;;;;;;5032309;28;20091;-88
2022/04/24 03:21:00;;;;;;;11.57;5.55;;;6.90;99.90;;;;;;5032666;28;20041;-87
2022/04/24 03:23:26;;;;;;;10.97;5.67;;;6.90;99.90;;;;;;5015410;28;20053;-87
2022/04/24 03:25:51;;;;;;;10.82;5.70;;;7.40;99.90;;;;;;5032534;28;20049;-87
2022/04/24 03:28:17;;;;;;;11.70;5.60;;;6.90;99.90;;;;;;5015136;28;20046;-87
2022/04/24 03:30:43;;;;;;;11.40;5.40;;;6.90;99.90;;;;;;5032869;28;20060;-88
2022/04/24 03:33:09;;;;;;;11.57;5.70;;;6.90;99.90;;;;;;5031835;28;20444;-87
2022/04/24 03:35:35;;;;;;;11.52;5.68;;;6.90;99.90;;;;;;5015530;28;20132;-87
2022/04/24 03:38:01;;;;;;;11.30;6.15;;;6.90;99.90;;;;;;5032458;28;20481;-87
2022/04/24 03:40:27;;;;;;;11.68;5.75;;;6.90;99.90;;;;;;5014264;28;20469;-88
2022/04/24 03:42:52;;;;;;;11.73;5.82;;;6.90;99.90;;;;;;5015329;28;20049;-88
2022/04/24 03:45:18;;;;;;;11.95;5.90;;;6.90;99.90;;;;;;5014851;28;20053;-87
2022/04/24 03:47:44;;;;;;;11.07;5.80;;;6.80;99.90;;;;;;5014803;28;20077;-87
2022/04/24 03:50:09;;;;;;;11.68;6.15;;;6.80;99.90;;;;;;5036674;28;20412;-87
2022/04/24 03:52:35;;;;;;;12.10;5.32;;;6.80;99.90;;;;;;5035760;28;20045;-87
2022/04/24 03:55:01;;;;;;;10.35;5.38;;;6.80;99.90;;;;;;5036591;28;20045;-87
2022/04/24 03:57:27;;;;;;;11.70;5.90;;;6.70;99.90;;;;;;5036673;28;20051;-87
2022/04/24 03:59:52;;;;;;;11.18;5.18;;;6.70;99.90;;;;;;5017339;28;20143;-88
2022/04/24 04:02:18;;;;;;;11.88;5.68;;;6.60;99.90;;;;;;5035923;28;20042;-87
2022/04/24 04:04:43;;;;;;;11.45;5.53;;;6.60;99.90;;;;;;5035393;28;20088;-87
2022/04/24 04:07:09;;;;;;;11.10;5.45;;;6.60;99.90;;;;;;5017057;28;20617;-87
2022/04/24 04:09:35;;;;;;;13.18;5.97;;;6.60;99.90;;;;;;5036220;28;20512;-87
2022/04/24 04:12:01;;;;;;;12.20;5.68;;;6.50;99.90;;;;;;5036135;28;20045;-87
2022/04/24 04:14:26;;;;;;;13.07;5.88;;;6.50;99.90;;;;;;5035851;28;20041;-87
2022/04/24 04:16:52;;;;;;;13.93;6.30;;;6.50;99.90;;;;;;5035826;28;20048;-87
2022/04/24 04:19:18;;;;;;;11.95;6.20;;;6.40;99.90;;;;;;5036399;28;20045;-88
2022/04/24 04:21:43;;;;;;;11.80;5.63;;;6.40;99.90;;;;;;5035474;28;20388;-87
2022/04/24 04:24:10;;;;;;;12.00;5.90;;;6.40;99.90;;;;;;5036267;28;20045;-87
2022/04/24 04:26:36;;;;;;;12.73;6.50;;;6.30;99.90;;;;;;5018690;28;20045;-88
2022/04/24 04:29:02;;;;;;;12.45;6.40;;;6.30;99.90;;;;;;5017111;28;20052;-88
2022/04/24 04:31:28;;;;;;;11.10;5.88;;;6.30;99.90;;;;;;5034950;28;20124;-87
2022/04/24 04:33:53;;;;;;;11.60;5.80;;;6.30;99.90;;;;;;5035720;28;20545;-87
2022/04/24 04:36:20;;;;;;;12.55;6.05;;;6.30;99.90;;;;;;5017637;28;20524;-87
2022/04/24 04:38:45;;;;;;;13.43;6.18;;;6.20;99.90;;;;;;5035392;28;20037;-87
2022/04/24 04:41:11;;;;;;;13.55;6.53;;;6.20;99.90;;;;;;5036134;28;20124;-87
2022/04/24 04:43:37;;;;;;;13.85;6.60;;;6.30;99.90;;;;;;5035067;28;20037;-88
2022/04/24 04:46:02;;;;;;;15.25;6.20;;;6.20;99.90;;;;;;5034918;28;20049;-87
2022/04/24 04:48:28;;;;;;;11.85;5.38;;;6.20;99.90;;;;;;5018008;28;20084;-87
2022/04/24 04:50:54;;;;;;;11.00;5.78;;;6.20;99.90;;;;;;5034662;28;20049;-87
2022/04/24 04:53:20;;;;;;;13.88;6.43;;;6.30;99.90;;;;;;5035589;28;20042;-87
2022/04/24 04:55:46;;;;;;;12.35;6.22;;;6.30;99.90;;;;;;5017105;28;20554;-87
2022/04/24 04:58:12;;;;;;;14.07;6.53;;;6.30;99.90;;;;;;5035333;28;20045;-87
2022/04/24 05:00:37;;;;;;;12.73;6.07;;;6.30;99.90;;;;;;5035684;28;20042;-87
2022/04/24 05:03:03;;;;;;;14.75;5.53;;;6.30;99.90;;;;;;5016353;28;20100;-87
2022/04/24 05:05:29;;;;;;;13.75;6.35;;;6.40;99.90;;;;;;5034889;28;20389;-88
2022/04/24 05:07:54;;;;;;;12.63;6.65;;;6.40;99.90;;;;;;5035315;28;20457;-87
2022/04/24 05:10:20;;;;;;;14.43;6.78;;;6.50;99.90;;;;;;5034391;28;20056;-87
2022/04/24 05:12:45;;;;;;;13.60;6.32;;;6.50;99.90;;;;;;5017047;28;20072;-87
2022/04/24 05:15:13;;;;;;;12.55;6.20;;;6.50;99.90;;;;;;5017237;28;20452;-87
2022/04/24 05:17:40;;;;;;;11.88;5.88;;;6.60;99.90;;;;;;5016802;28;20060;-87
2022/04/24 05:20:07;;;;;;;13.32;6.05;;;6.60;99.90;;;;;;5035405;28;20440;-87
2022/04/24 05:22:33;;;;;;;13.57;6.25;;;6.60;99.90;;;;;;5017057;28;20500;-87
2022/04/24 05:24:59;;;;;;;12.43;6.20;;;6.70;99.90;;;;;;5034285;28;20081;-87
2022/04/24 05:27:26;;;;;;;14.60;6.20;;;6.70;99.90;;;;;;5016777;28;20041;-87
2022/04/24 05:29:51;;;;;;;13.03;6.60;;;6.70;99.90;;;;;;5035057;28;20045;-87
2022/04/24 05:32:17;;;;;;;11.63;5.90;;;6.70;99.90;;;;;;5016934;28;20107;-87
2022/04/24 05:34:44;;;;;;;13.63;6.57;;;6.70;99.90;;;;;;5034470;28;20034;-87
2022/04/24 05:37:11;;;;;;;11.63;5.87;;;6.80;99.90;;;;;;5017458;28;20487;-87
2022/04/24 05:39:37;;;;;;;13.13;5.93;;;6.80;99.90;;;;;;5015997;28;20057;-87
2022/04/24 05:42:03;;;;;;;13.27;6.30;;;6.90;99.90;;;;;;5016791;28;20496;-87
2022/04/24 05:44:28;;;;;;;10.83;5.47;;;6.90;99.90;;;;;;5034627;28;20051;-87
2022/04/24 05:46:54;;;;;;;13.67;6.47;;;6.90;99.90;;;;;;5033627;28;20041;-87
2022/04/24 05:49:20;;;;;;;14.57;6.30;;;6.90;99.90;;;;;;5034472;28;20124;-87
2022/04/24 05:51:45;;;;;;;13.77;6.40;;;6.90;99.90;;;;;;5033980;28;20053;-87
2022/04/24 05:54:11;;;;;;;14.33;6.43;;;7.00;99.90;;;;;;5015906;28;20043;-87
2022/04/24 05:56:38;;;;;;;12.93;6.50;;;7.00;99.90;;;;;;5034039;28;20045;-87
2022/04/24 05:59:05;;;;;;;12.57;6.28;;;7.10;99.90;;;;;;5033709;28;20092;-87
2022/04/24 06:01:31;;;;;;;13.65;6.88;;;7.20;99.90;;;;;;5017067;28;20133;-87
2022/04/24 06:03:56;;;;;;;13.93;6.40;;;7.30;99.90;;;;;;5034149;28;20491;-87
2022/04/24 06:06:22;;;;;;;11.68;6.15;;;7.30;99.90;;;;;;5033691;28;20885;-87
2022/04/24 06:08:47;;;;;;;12.57;5.78;;;7.40;99.90;;;;;;5033791;28;20103;-87
2022/04/24 06:11:13;;;;;;;12.90;6.32;;;7.50;99.90;;;;;;5033662;28;20444;-87
2022/04/24 06:13:42;;;;;;;13.13;6.18;;;7.60;99.90;;;;;;5033478;28;20436;-87
2022/04/24 06:16:08;;;;;;;11.55;6.03;;;7.80;99.90;;;;;;5034016;28;20081;-87
2022/04/24 06:18:33;;;;;;;12.40;6.25;;;7.80;99.90;;;;;;5034940;28;20072;-90
2022/04/24 06:20:59;;;;;;;11.75;6.03;;;7.90;99.90;;;;;;5015039;28;20053;-90
2022/04/24 06:23:27;;;;;;;10.90;5.68;;;7.90;99.90;;;;;;5034354;28;20049;-89
2022/04/24 06:26:05;;;;;;;;;;;;;;;;;;;;;
2022/04/24 06:28:34;;;;;;;12.18;5.95;;;8.10;99.90;;;;;;5034087;28;20497;-89
2022/04/24 06:30:59;;;;;;;11.15;5.95;;;7.90;99.90;;;;;;5034329;28;20424;-90
2022/04/24 06:33:25;;;;;;;13.25;6.43;;;8.00;99.90;;;;;;5022348;28;20067;-94
2022/04/24 06:35:51;;;;;;;12.00;6.18;;;9.50;99.90;;;;;;5015420;28;20045;-92
2022/04/24 06:38:19;;;;;;;11.75;5.60;;;8.30;99.90;;;;;;5033875;28;20073;-92
2022/04/24 06:40:51;;;;;;;12.75;5.95;;;9.00;99.90;;;;;;5015991;28;20052;-93
2022/04/24 06:43:16;;;;;;;11.93;6.65;;;9.30;99.90;;;;;;5033779;28;20037;-94
2022/04/24 06:45:43;;;;;;;14.15;5.95;;;7.60;99.90;;;;;;5016953;28;20041;-92
2022/04/24 06:48:16;;;;;;;11.80;6.00;;;8.60;99.90;;;;;;5033798;28;20041;-93
2022/04/24 06:50:53;;;;;;;10.88;5.30;;;8.50;99.90;;;;;;5016251;28;20048;-94
2022/04/24 06:53:27;;;;;;;10.55;5.78;;;8.80;99.90;;;;;;5016569;28;20496;-95
2022/04/24 06:55:53;;;;;;;11.70;5.60;;;9.20;99.90;;;;;;5033089;28;20129;-90
2022/04/24 06:58:19;;;;;;;12.18;5.75;;;9.50;99.90;;;;;;5008766;28;20491;-90
2022/04/24 07:00:52;;;;;;;11.15;5.47;;;9.20;99.90;;;;;;5021354;28;20478;-91
2022/04/24 07:03:29;;;;;;;11.30;5.60;;;9.40;99.90;;;;;;5002602;28;20045;-90
2022/04/24 07:05:56;;;;;;;12.40;5.85;;;8.90;99.90;;;;;;5045840;22;20124;-88
2022/04/24 07:08:24;;;;;;;11.93;5.55;;;10.50;99.90;;;;;;5026185;28;20055;-92
2022/04/24 07:10:50;;;;;;;12.57;6.03;;;9.40;99.90;;;;;;5023439;28;20057;-90
2022/04/24 07:13:25;;;;;;;11.43;5.32;;;10.60;99.90;;;;;;5015760;28;20068;-90
2022/04/24 07:15:54;;;;;;;11.48;5.70;;;10.30;99.90;;;;;;5014631;28;20129;-90
2022/04/24 07:18:25;;;;;;;10.45;5.22;;;9.70;99.90;;;;;;5014549;28;20049;-92
2022/04/24 07:20:53;;;;;;;11.45;5.53;;;9.70;99.90;;;;;;5015727;28;20056;-91
2022/04/24 07:23:18;;;;;;;11.57;5.50;;;8.70;99.90;;;;;;5029405;28;20033;-91
2022/04/24 07:25:44;;;;;;;12.02;5.68;;;9.70;99.90;;;;;;5034132;28;20101;-91
2022/04/24 07:28:14;;;;;;;15.35;5.50;;;9.80;99.90;;;;;;5052823;28;20037;-91
2022/04/24 07:30:41;;;;;;;12.10;5.20;;;9.80;99.90;;;;;;5033872;28;20060;-92
2022/04/24 07:33:16;;;;;;;11.38;5.22;;;9.40;99.90;;;;;;5053131;28;20041;-94
2022/04/24 07:35:48;;;;;;;11.15;5.13;;;10.00;99.90;;;;;;5039416;28;20033;-90
2022/04/24 07:38:25;;;;;;;10.75;5.03;;;10.40;99.90;;;;;;5034031;28;20385;-90
2022/04/24 07:41:00;;;;;;;10.07;4.88;;;9.80;99.90;;;;;;5034268;28;20491;-89
2022/04/24 07:43:33;;;;;;;10.82;5.50;;;9.80;99.90;;;;;;5052839;28;20124;-89
2022/04/24 07:46:08;;;;;;;10.73;5.30;;;10.50;99.90;;;;;;5051737;28;20060;-89
2022/04/24 07:48:42;;;;;;;11.50;5.43;;;10.10;99.90;;;;;;5052578;28;20432;-89
2022/04/24 07:51:11;;;;;;;10.77;4.95;;;10.20;99.90;;;;;;5052177;28;20119;-88
2022/04/24 07:53:41;;;;;;;11.77;5.28;;;10.70;99.90;;;;;;5051873;28;20044;-89
2022/04/24 07:56:19;;;;;;;9.90;4.70;;;9.90;99.90;;;;;;5034688;28;20090;-89
2022/04/24 07:58:44;;;;;;;12.35;5.20;;;11.30;99.90;;;;;;5051343;28;20382;-89
2022/04/24 08:01:11;;;;;;;10.18;4.82;;;10.70;99.90;;;;;;5052000;28;20044;-89
2022/04/24 08:03:37;;;;;;;12.07;5.03;;;10.80;99.90;;;;;;5034512;28;20516;-88
2022/04/24 08:06:27;;;;;;;11.88;4.70;;;11.20;99.90;;;;;;5051658;28;20139;-89
2022/04/24 08:08:53;;;;;;;10.98;4.78;;;11.40;99.90;;;;;;5045199;28;20471;-89
2022/04/24 08:11:18;;;;;;;11.27;5.10;;;11.30;99.90;;;;;;5052442;28;20065;-88
2022/04/24 08:13:44;;;;;;;13.02;5.20;;;;;;;;;;5051754;28;20072;-89
2022/04/24 08:16:11;;;;;;;11.50;5.25;;;11.50;99.90;;;;;;5052183;28;20045;-88
2022/04/24 08:18:45;;;;;;;12.10;5.20;;;12.50;99.90;;;;;;5040903;28;20049;-88
2022/04/24 08:21:17;;;;;;;10.55;4.50;;;12.10;99.90;;;;;;5040297;28;20037;-88
2022/04/24 08:23:43;;;;;;;9.20;4.03;;;11.30;99.90;;;;;;5040803;28;20103;-89
2022/04/24 08:26:10;;;;;;;10.57;4.68;;;11.70;99.90;;;;;;5027415;28;20492;-88
2022/04/24 08:28:36;;;;;;;11.77;4.15;;;11.80;99.90;;;;;;5030832;28;20045;-87
2022/04/24 08:31:10;;;;;;;9.57;4.18;;;12.00;99.90;;;;;;5043463;28;20045;-91
2022/04/24 08:33:52;;;;;;;8.52;3.70;;;12.10;99.90;;;;;;5051834;28;20036;-89
2022/04/24 08:36:18;;;;;;;9.43;3.97;;;11.30;99.90;;;;;;5029533;23;20794;-89
2022/04/24 08:38:47;;;;;;;9.07;3.50;;;13.10;99.90;;;;;;5002719;28;20030;-90
2022/04/24 08:44:01;;;;;;;9.70;3.50;;;12.80;99.90;;;;;;5053736;23;20049;-90
2022/04/24 08:46:29;;;;;;;9.40;3.67;;;13.10;99.90;;;;;;5055610;28;20503;-90
2022/04/24 08:48:59;;;;;;;9.18;3.67;;;12.70;99.90;;;;;;5053021;28;20440;-90
2022/04/24 08:51:32;;;;;;;9.25;3.60;;;14.10;99.90;;;;;;5054125;28;20173;-90
2022/04/24 08:53:58;;;;;;;9.60;3.60;;;13.10;99.90;;;;;;5053800;28;20087;-89
2022/04/24 08:56:33;;;;;;;11.45;3.10;;;13.00;99.90;;;;;;5053457;28;20046;-90
2022/04/24 08:59:11;;;;;;;9.07;3.33;;;13.80;99.90;;;;;;5053255;28;20057;-91
2022/04/24 09:01:46;;;;;;;9.10;3.38;;;12.70;99.90;;;;;;5055355;28;20113;-92
2022/04/24 09:04:14;;;;;;;10.45;3.17;;;13.80;99.90;;;;;;5053134;28;20528;-90
2022/04/24 09:06:54;;;;;;;10.40;3.78;;;13.80;99.90;;;;;;5055380;28;20127;-91
2022/04/24 09:09:29;;;;;;;8.93;3.22;;;14.00;99.90;;;;;;5054846;28;20052;-87
2022/04/24 09:12:18;;;;;;;7.85;3.03;;;14.20;99.90;;;;;;5057975;28;20049;-89
2022/04/24 09:14:48;;;;;;;8.82;3.28;;;14.50;99.90;;;;;;5053634;28;20079;-87
2022/04/24 09:17:22;;;;;;;9.15;2.90;;;15.10;99.90;;;;;;5053511;28;20049;-88
2022/04/24 09:19:48;;;;;;;;;;;14.80;99.90;;;;;;5055043;28;20431;-87
2022/04/24 09:22:14;;;;;;;8.43;2.95;;;14.80;99.80;;;;;;5053634;28;19928;-88
2022/04/24 09:25:12;;;;;;;7.35;3.05;;;14.70;99.90;;;;;;5052899;28;20064;-90
2022/04/24 09:27:54;;;;;;;8.20;3.53;;;15.30;99.90;;;;;;5054891;28;20044;-87
2022/04/24 09:30:20;;;;;;;8.15;3.20;;;14.90;99.70;;;;;;5054099;28;20076;-87
2022/04/24 09:32:55;;;;;;;8.60;3.30;;;15.90;99.90;;;;;;5061123;22;20053;-88
2022/04/24 09:35:32;;;;;;;9.85;3.40;;;15.50;99.90;;;;;;5035996;28;20057;-89
2022/04/24 09:38:17;;;;;;;11.40;3.40;;;15.40;99.40;;;;;;5017048;28;20053;-89
2022/04/24 09:40:44;;;;;;;8.63;3.20;;;15.40;99.30;;;;;;5016975;28;20041;-88
2022/04/24 09:43:25;;;;;;;8.68;3.22;;;15.40;99.70;;;;;;5034004;28;20128;-89
2022/04/24 09:46:00;;;;;;;7.68;3.00;;;15.90;98.50;;;;;;5031908;28;20077;-90
2022/04/24 09:48:34;;;;;;;8.23;3.58;;;15.40;98.70;;;;;;5016871;28;20154;-89
2022/04/24 09:51:02;;;;;;;9.88;4.60;;;15.20;98.00;;;;;;5017716;28;20041;-89
2022/04/24 09:53:48;;;;;;;9.70;3.45;;;15.70;99.20;;;;;;5035372;28;20128;-88
2022/04/24 09:56:31;;;;;;;8.38;3.42;;;15.10;97.30;;;;;;5017000;28;20124;-91
2022/04/24 09:59:19;;;;;;;8.63;3.20;;;15.10;97.40;;;;;;5035575;28;20128;-92
2022/04/24 10:04:13;;;;;;;8.82;3.20;;;15.60;97.00;;;;;;5061452;22;20056;-91
2022/04/24 10:06:57;;;;;;;9.23;3.35;;;15.50;97.70;;;;;;5053585;28;20052;-90
2022/04/24 10:09:36;;;;;;;9.18;3.15;;;15.70;95.50;;;;;;5036231;28;20052;-93
2022/04/24 10:12:19;;;;;;;7.90;3.10;;;15.90;95.80;;;;;;5053276;28;20445;-93
2022/04/24 10:14:59;;;;;;;10.00;3.40;;;16.20;95.60;;;;;;5055865;22;20054;-93
2022/04/24 10:17:59;;;;;;;7.63;2.97;;;16.30;95.50;;;;;;4996946;28;20041;-92
2022/04/24 10:21:02;;;;;;;9.20;3.20;;;16.20;94.40;;;;;;4996477;28;20049;-93
2022/04/24 10:23:45;;;;;;;9.40;3.00;;;16.40;92.90;;;;;;5013697;28;20045;-91
2022/04/24 10:26:22;;;;;;;9.02;2.95;;;17.20;94.00;;;;;;4996113;28;20382;-92
2022/04/24 10:30:01;;;;;;;8.18;3.13;;;15.90;92.40;;;;;;5026774;28;20489;-92
2022/04/24 10:32:39;;;;;;;9.18;3.00;;;16.40;91.90;;;;;;4956950;28;20070;-96
2022/04/24 10:35:20;;;;;;;8.30;2.97;;;16.90;93.40;;;;;;4957312;28;20145;-94
2022/04/24 10:37:47;;;;;;;8.10;3.38;;;17.50;92.20;;;;;;4973487;28;20043;-91
2022/04/24 10:40:22;;;;;;;9.25;3.00;;;18.00;92.70;;;;;;4996268;28;20493;-94
2022/04/24 10:42:49;;;;;;;7.95;2.90;;;17.60;91.00;;;;;;4996303;28;20061;-94
2022/04/24 10:45:20;;;;;;;7.20;2.67;;;16.10;91.10;;;;;;5000757;28;20034;-93
2022/04/24 10:48:03;;;;;;;11.90;3.25;;;17.30;91.00;;;;;;5019876;28;20050;-95
2022/04/24 10:50:54;;;;;;;7.50;2.70;;;18.10;90.50;;;;;;5015389;28;20488;-91
2022/04/24 10:53:22;;;;;;;7.40;2.90;;;18.50;90.80;;;;;;4996711;28;20050;-90
2022/04/24 10:56:01;;;;;;;8.60;2.70;;;17.50;90.20;;;;;;5013676;28;20050;-89
2022/04/24 10:58:27;;;;;;;8.50;2.90;;;17.60;89.80;;;;;;4996635;28;20140;-89
2022/04/24 11:01:15;;;;;;;9.02;2.70;;;17.60;90.00;;;;;;5033991;23;20087;-85
2022/04/24 11:04:07;;;;;;;9.05;3.17;;;18.40;88.80;;;;;;5034020;28;20049;-85
2022/04/24 11:06:34;;;;;;;7.93;2.80;;;18.40;87.70;;;;;;5035370;28;20049;-85
2022/04/24 11:09:10;;;;;;;8.60;2.90;;;18.50;88.80;;;;;;5051382;28;20052;-86
2022/04/24 11:12:16;;;;;;;10.75;3.08;;;19.10;87.60;;;;;;5052418;28;20037;-85
2022/04/24 11:14:55;;;;;;;25.95;4.43;;;19.10;88.80;;;;;;5050182;28;20045;-85
2022/04/24 11:17:42;;;;;;;9.40;3.58;;;18.80;87.80;;;;;;5034198;28;20043;-85
2022/04/24 11:20:31;;;;;;;7.60;3.45;;;18.30;86.70;;;;;;5051655;28;20171;-85
2022/04/24 11:23:08;;;;;;;8.30;3.20;;;17.20;87.60;;;;;;5049096;28;20559;-85
2022/04/24 11:25:43;;;;;;;8.95;3.25;;;18.10;88.00;;;;;;5049739;28;20059;-85
2022/04/24 11:28:10;;;;;;;8.48;2.90;;;17.70;87.30;;;;;;5052310;28;20044;-86
2022/04/24 11:30:40;;;;;;;9.45;3.40;;;17.80;88.40;;;;;;5033345;28;20037;-85
2022/04/24 11:33:12;;;;;;;7.72;3.00;;;17.90;88.50;;;;;;5052637;28;20047;-86
2022/04/24 11:35:39;;;;;;;8.32;3.10;;;17.50;87.70;;;;;;5053145;28;20094;-87
2022/04/24 11:38:07;;;;;;;10.70;3.17;;;18.00;87.30;;;;;;5051795;28;20041;-88
2022/04/24 11:40:35;;;;;;;8.52;3.45;;;18.10;86.10;;;;;;5052464;28;20045;-86
2022/04/24 11:43:06;;;;;;;7.65;3.13;;;17.80;86.10;;;;;;5035391;28;20033;-88
2022/04/24 11:51:20;;;;;;;8.00;2.88;;;17.60;84.30;;;;;;5035369;28;20057;-87
2022/04/24 11:53:46;;;;;;;7.32;2.70;;;17.90;84.80;;;;;;5052189;28;20102;-87
2022/04/24 11:56:13;;;;;;;8.48;3.10;;;17.50;84.20;;;;;;5052429;28;20049;-87
2022/04/24 11:58:43;;;;;;;8.27;2.90;;;18.00;84.10;;;;;;5033862;28;20041;-88
2022/04/24 12:01:30;;;;;;;7.55;2.60;;;18.80;84.90;;;;;;5048117;28;20045;-89
2022/04/24 12:04:21;;;;;;;9.48;3.03;;;18.90;82.30;;;;;;5052200;28;20405;-88
2022/04/24 12:06:48;;;;;;;9.48;3.55;;;18.70;80.50;;;;;;5050025;28;20049;-87
2022/04/24 12:09:22;;;;;;;8.27;3.00;;;19.90;82.80;;;;;;5052296;28;20124;-87
2022/04/24 12:11:49;;;;;;;9.05;3.10;;;19.10;80.90;;;;;;5055101;28;20053;-87
2022/04/24 12:15:05;;;;;;;8.57;3.30;;;19.30;83.40;;;;;;5085020;22;20502;-89
2022/04/24 12:17:32;;;;;;;13.60;3.28;;;18.80;80.40;;;;;;4998777;28;20409;-87
2022/04/24 12:19:58;;;;;;;8.48;3.10;;;17.80;82.40;;;;;;4996951;28;20054;-87
2022/04/24 12:22:39;;;;;;;7.72;3.20;;;18.10;83.90;;;;;;4997334;28;20081;-87
2022/04/24 12:25:15;;;;;;;9.38;3.00;;;18.10;84.80;;;;;;5015807;28;20076;-86
2022/04/24 12:28:05;;;;;;;8.10;3.20;;;16.70;83.50;;;;;;5014180;28;20058;-85
2022/04/24 12:30:37;;;;;;;8.75;3.13;;;16.70;84.40;;;;;;4998107;28;20042;-85
2022/04/24 12:33:21;;;;;;;8.15;2.90;;;17.00;84.10;;;;;;5014806;28;20465;-85
2022/04/24 12:36:06;;;;;;;8.82;3.28;;;18.10;85.30;;;;;;4997415;28;20046;-86
2022/04/24 12:38:40;;;;;;;7.85;2.90;;;18.20;84.90;;;;;;5015761;28;20046;-87
2022/04/24 12:41:28;;;;;;;9.63;3.10;;;18.00;85.50;;;;;;5015382;28;20046;-86
2022/04/24 12:44:07;;;;;;;9.07;2.83;;;18.90;84.40;;;;;;5015613;28;20045;-87
2022/04/24 12:46:53;;;;;;;9.57;3.70;;;18.00;82.80;;;;;;4998085;28;20153;-88
2022/04/24 12:51:44;;;;;;;8.65;2.80;;;18.30;83.40;;;;;;5086403;23;20086;-87
2022/04/24 12:54:40;;;;;;;8.88;3.25;;;18.10;81.80;;;;;;5063574;28;20044;-85
2022/04/24 12:57:18;;;;;;;8.48;2.72;;;17.30;80.70;;;;;;5054444;28;20037;-85
2022/04/24 13:00:24;;;;;;;8.63;3.30;;;18.30;80.50;;;;;;5053988;28;20041;-85
2022/04/24 13:03:09;;;;;;;10.48;3.17;;;18.60;81.40;;;;;;4975322;28;20131;-84
2022/04/24 13:05:40;;;;;;;7.25;3.17;;;18.40;81.30;;;;;;4992452;28;20046;-84
2022/04/24 13:08:06;;;;;;;8.48;3.13;;;18.30;82.80;;;;;;4976953;28;20145;-86
2022/04/24 13:10:44;;;;;;;9.55;2.97;;;17.50;82.00;;;;;;4976840;28;20094;-86
2022/04/24 13:13:21;;;;;;;8.63;2.85;;;18.50;83.30;;;;;;4993311;28;20054;-86
2022/04/24 13:18:55;;;;;;;9.45;3.55;;;18.40;81.80;;;;;;4997490;28;20461;-86
2022/04/24 13:21:33;;;;;;;10.20;3.78;;;18.00;82.90;;;;;;5017330;28;20053;-85